Flight Track Log - Related Links

Times and Time Zones

All times are in EDT time to prevent confusion due to time zone crossing. See the PCO341 flight status page for this flight to view local times or setup timezone preferences in your user account.

Time Position Orientation Groundspeed Altitude Reporting Facility
EDT Latitude Longitude Course Direction KTS MPH feet Rate Location/Type
Thu 12:53:50 PM 49.1667 -123.2333 334° Northwest 140 161 1,600  Level Vancouver Center
Thu 12:54:50 PM 49.1833 -123.3167 287° West 160 184 3,400 1,600 Climbing Vancouver Center
Thu 12:55:50 PM 49.2167 -123.3333 342° North 170 196 4,800 1,300 Climbing Vancouver Center
Thu 12:56:50 PM 49.2667 -123.3333 360° North 170 196 6,000 1,200 Climbing Vancouver Center
Thu 12:57:50 PM 49.3167 -123.3333 360° North 170 196 7,200 1,200 Climbing Vancouver Center
Thu 12:58:00 PM 49.4974 -123.4858 331° Northwest  Level FlightAware Approximate
Thu 12:58:50 PM 49.3500 -123.3333 360° North 170 196 8,400  Level Vancouver Center
Thu 12:59:00 PM 49.5529 -123.5313 334° Northwest  Level FlightAware Approximate
Thu 12:59:50 PM 49.4000 -123.3333 360° North 180 207 9,600  Level Vancouver Center
Thu 01:00:50 PM 49.4500 -123.3667 337° Northwest 180 207 10,700 1,050 Climbing Vancouver Center
Thu 01:01:50 PM 49.5000 -123.3833 348° North 180 207 11,700 950 Climbing Vancouver Center
Thu 01:02:50 PM 49.5333 -123.4333 316° Northwest 180 207 12,600 900 Climbing Vancouver Center
Thu 01:03:50 PM 49.5833 -123.4833 327° Northwest 190 219 13,500 900 Climbing Vancouver Center
Thu 01:04:50 PM 49.6167 -123.5333 316° Northwest 190 219 14,400 750 Climbing Vancouver Center
Thu 01:05:50 PM 49.6667 -123.6000 319° Northwest 200 230 15,000 700 Climbing Vancouver Center
Thu 01:06:50 PM 49.7167 -123.6500 327° Northwest 200 230 15,800 500 Climbing Vancouver Center
Thu 01:07:50 PM 49.7667 -123.7000 327° Northwest 210 242 16,000 100 Climbing Vancouver Center
Thu 01:08:50 PM 49.8167 -123.7500 327° Northwest 230 265 16,000  Level Vancouver Center
Thu 01:09:50 PM 49.8667 -123.8000 327° Northwest 240 276 16,000  Level Vancouver Center
Thu 01:10:50 PM 49.9333 -123.8500 334° Northwest 240 276 16,000  Level Vancouver Center
Thu 01:11:50 PM 49.9833 -123.9333 313° West 240 276 16,000  Level Vancouver Center
Thu 01:12:50 PM 50.0333 -123.9833 327° Northwest 250 288 16,000  Level Vancouver Center
Thu 01:13:50 PM 50.1000 -124.0333 334° Northwest 250 288 16,000  Level Vancouver Center
Thu 01:14:50 PM 50.1500 -124.1167 313° West 250 288 16,000  Level Vancouver Center
Thu 01:15:50 PM 50.2167 -124.1667 334° Northwest 250 288 16,000  Level Vancouver Center
Thu 01:16:50 PM 50.2667 -124.2167 327° Northwest 250 288 16,000  Level Vancouver Center
Thu 01:18:00 PM 50.3238 -124.2891 321° Northwest  Level FlightAware Approximate
Thu 01:19:07 PM 50.4000 -124.3500 321° Northwest 250 288 16,000  Level Vancouver Center
Thu 01:20:07 PM 50.4500 -124.4333 313° West 240 276 16,000  Level Vancouver Center
Thu 01:21:07 PM 50.5167 -124.4833 335° Northwest 250 288 16,000  Level Vancouver Center
Thu 01:22:07 PM 50.5667 -124.5333 328° Northwest 250 288 16,000  Level Vancouver Center
Thu 01:23:07 PM 50.6167 -124.5833 328° Northwest 270 311 16,000  Level Vancouver Center
Thu 01:24:07 PM 50.6833 -124.6667 322° Northwest 230 265 16,000  Level Vancouver Center
Thu 01:25:07 PM 50.7333 -124.7167 328° Northwest 240 276 16,000  Level Vancouver Center
Thu 01:26:07 PM 50.8000 -124.7833 328° Northwest 250 288 16,000  Level Vancouver Center
Thu 01:27:07 PM 50.8500 -124.8500 320° Northwest 240 276 16,000  Level Vancouver Center
Thu 01:28:07 PM 50.9000 -124.9167 320° Northwest 240 276 16,000  Level Vancouver Center
Thu 01:29:07 PM 50.9667 -124.9667 335° Northwest 250 288 16,000  Level Vancouver Center
Thu 01:30:07 PM 51.0167 -125.0500 314° West 250 288 16,000  Level Vancouver Center
Thu 01:31:07 PM 51.0667 -125.1000 328° Northwest 250 288 16,000  Level Vancouver Center
Thu 01:32:07 PM 51.1333 -125.1500 335° Northwest 250 288 16,000  Level Vancouver Center
Thu 01:33:07 PM 51.1833 -125.2333 314° West 250 288 16,000  Level Vancouver Center
Thu 01:34:07 PM 51.2500 -125.3000 328° Northwest 250 288 16,000  Level Vancouver Center
Thu 01:35:07 PM 51.3000 -125.3500 328° Northwest 250 288 16,000  Level Vancouver Center
Thu 01:36:07 PM 51.3500 -125.4000 328° Northwest 240 276 16,000  Level Vancouver Center
Thu 01:37:07 PM 51.4167 -125.4833 322° Northwest 250 288 16,000  Level Vancouver Center
Thu 01:38:07 PM 51.4667 -125.5333 328° Northwest 250 288 16,000  Level Vancouver Center
Thu 01:39:33 PM 51.5500 -125.6167 328° Northwest 230 265 16,000  Level Vancouver Center
Thu 01:40:33 PM 51.6167 -125.6833 328° Northwest 250 288 16,000  Level Vancouver Center
Thu 01:41:33 PM 51.6667 -125.7667 314° West 250 288 16,000  Level Vancouver Center
Thu 01:42:33 PM 51.7333 -125.8167 335° Northwest 250 288 16,000  Level Vancouver Center
Thu 01:43:33 PM 51.7667 -125.8833 309° West 250 288 16,000  Level Vancouver Center
Thu 01:44:33 PM 51.8333 -125.9333 335° Northwest 250 288 16,000  Level Vancouver Center
Thu 01:45:33 PM 51.8833 -126.0167 314° West 250 288 16,000 -700 Level Vancouver Center
Thu 01:46:33 PM 51.9500 -126.0667 335° Northwest 250 288 14,600 -1,550 Descending Vancouver Center
Thu 01:47:33 PM 52.0167 -126.1333 328° Northwest 250 288 12,900 -1,700 Descending Vancouver Center

Login

Don't have an account? Register now (free) for customized features, flight alerts, and more!